sensor_id;sensor_type;location;lat;lon;timestamp;temperature;humidity
18339;DHT22;9295;44.484;11.240;2023-07-31T00:00:16;24.50;99.90
18339;DHT22;9295;44.484;11.240;2023-07-31T00:02:44;24.50;99.90
18339;DHT22;9295;44.484;11.240;2023-07-31T00:05:13;24.50;99.90
18339;DHT22;9295;44.484;11.240;2023-07-31T00:07:41;24.50;99.90
18339;DHT22;9295;44.484;11.240;2023-07-31T00:10:10;24.40;99.90
18339;DHT22;9295;44.484;11.240;2023-07-31T00:12:39;24.40;99.90
18339;DHT22;9295;44.484;11.240;2023-07-31T00:15:08;24.30;99.90
18339;DHT22;9295;44.484;11.240;2023-07-31T00:17:38;24.40;99.90
18339;DHT22;9295;44.484;11.240;2023-07-31T00:20:08;24.30;99.90
18339;DHT22;9295;44.484;11.240;2023-07-31T00:22:37;24.30;99.90
18339;DHT22;9295;44.484;11.240;2023-07-31T00:25:06;24.20;99.90
18339;DHT22;9295;44.484;11.240;2023-07-31T00:27:34;24.20;99.90
18339;DHT22;9295;44.484;11.240;2023-07-31T00:30:05;24.10;99.90
18339;DHT22;9295;44.484;11.240;2023-07-31T00:32:34;24.00;99.90
18339;DHT22;9295;44.484;11.240;2023-07-31T00:35:04;24.00;99.90
18339;DHT22;9295;44.484;11.240;2023-07-31T00:37:33;24.00;99.90
18339;DHT22;9295;44.484;11.240;2023-07-31T00:40:02;23.90;99.90
18339;DHT22;9295;44.484;11.240;2023-07-31T00:42:31;23.90;99.90
18339;DHT22;9295;44.484;11.240;2023-07-31T00:45:00;23.90;99.90
18339;DHT22;9295;44.484;11.240;2023-07-31T00:47:30;23.90;99.90
18339;DHT22;9295;44.484;11.240;2023-07-31T00:49:59;23.80;99.90
18339;DHT22;9295;44.484;11.240;2023-07-31T00:52:29;23.80;99.90
18339;DHT22;9295;44.484;11.240;2023-07-31T00:54:57;23.80;99.90
18339;DHT22;9295;44.484;11.240;2023-07-31T00:57:26;23.80;99.90
18339;DHT22;9295;44.484;11.240;2023-07-31T00:59:55;23.70;99.90
18339;DHT22;9295;44.484;11.240;2023-07-31T01:02:23;23.70;99.90
18339;DHT22;9295;44.484;11.240;2023-07-31T01:04:52;23.70;99.90
18339;DHT22;9295;44.484;11.240;2023-07-31T01:07:27;23.70;99.90
18339;DHT22;9295;44.484;11.240;2023-07-31T01:10:02;23.60;99.90
18339;DHT22;9295;44.484;11.240;2023-07-31T01:12:33;23.60;99.90
18339;DHT22;9295;44.484;11.240;2023-07-31T01:15:04;23.60;99.90
18339;DHT22;9295;44.484;11.240;2023-07-31T01:17:34;23.60;99.90
18339;DHT22;9295;44.484;11.240;2023-07-31T01:20:05;23.60;99.90
18339;DHT22;9295;44.484;11.240;2023-07-31T01:22:54;23.60;99.90
18339;DHT22;9295;44.484;11.240;2023-07-31T01:25:50;23.50;99.90
18339;DHT22;9295;44.484;11.240;2023-07-31T01:28:27;23.40;99.90
18339;DHT22;9295;44.484;11.240;2023-07-31T01:30:58;23.30;99.90
18339;DHT22;9295;44.484;11.240;2023-07-31T01:33:28;23.20;99.90
18339;DHT22;9295;44.484;11.240;2023-07-31T01:35:57;23.10;99.90
18339;DHT22;9295;44.484;11.240;2023-07-31T01:38:26;23.10;99.90
18339;DHT22;9295;44.484;11.240;2023-07-31T01:40:56;23.10;99.90
18339;DHT22;9295;44.484;11.240;2023-07-31T01:43:25;23.20;99.90
18339;DHT22;9295;44.484;11.240;2023-07-31T01:45:54;23.20;99.90
18339;DHT22;9295;44.484;11.240;2023-07-31T01:48:24;23.10;99.90
18339;DHT22;9295;44.484;11.240;2023-07-31T01:50:52;23.20;99.90
18339;DHT22;9295;44.484;11.240;2023-07-31T01:53:21;23.20;99.90
18339;DHT22;9295;44.484;11.240;2023-07-31T01:55:49;23.20;99.90
18339;DHT22;9295;44.484;11.240;2023-07-31T01:58:19;23.30;99.90
18339;DHT22;9295;44.484;11.240;2023-07-31T02:00:48;23.30;99.90
18339;DHT22;9295;44.484;11.240;2023-07-31T02:03:17;23.20;99.90
18339;DHT22;9295;44.484;11.240;2023-07-31T02:05:46;23.20;99.90
18339;DHT22;9295;44.484;11.240;2023-07-31T02:08:15;23.30;99.90
18339;DHT22;9295;44.484;11.240;2023-07-31T02:10:44;23.20;99.90
18339;DHT22;9295;44.484;11.240;2023-07-31T02:13:12;23.20;99.90
18339;DHT22;9295;44.484;11.240;2023-07-31T02:15:42;23.20;99.90
18339;DHT22;9295;44.484;11.240;2023-07-31T02:18:11;23.20;99.90
18339;DHT22;9295;44.484;11.240;2023-07-31T02:20:39;23.10;99.90
18339;DHT22;9295;44.484;11.240;2023-07-31T02:23:08;23.10;99.90
18339;DHT22;9295;44.484;11.240;2023-07-31T02:25:36;23.10;99.90
18339;DHT22;9295;44.484;11.240;2023-07-31T02:28:05;23.10;99.90
18339;DHT22;9295;44.484;11.240;2023-07-31T02:30:34;23.10;99.90
18339;DHT22;9295;44.484;11.240;2023-07-31T02:33:04;23.10;99.90
18339;DHT22;9295;44.484;11.240;2023-07-31T02:35:32;23.10;99.90
18339;DHT22;9295;44.484;11.240;2023-07-31T02:38:01;23.10;99.90
18339;DHT22;9295;44.484;11.240;2023-07-31T02:40:29;23.00;99.90
18339;DHT22;9295;44.484;11.240;2023-07-31T02:42:58;23.00;99.90
18339;DHT22;9295;44.484;11.240;2023-07-31T02:45:27;22.90;99.90
18339;DHT22;9295;44.484;11.240;2023-07-31T02:47:55;22.80;99.90
18339;DHT22;9295;44.484;11.240;2023-07-31T02:50:27;22.70;99.90
18339;DHT22;9295;44.484;11.240;2023-07-31T02:52:57;22.70;99.90
18339;DHT22;9295;44.484;11.240;2023-07-31T02:55:27;22.70;99.90
18339;DHT22;9295;44.484;11.240;2023-07-31T02:57:56;22.70;99.90
18339;DHT22;9295;44.484;11.240;2023-07-31T03:00:27;22.70;99.90
18339;DHT22;9295;44.484;11.240;2023-07-31T03:02:56;22.60;99.90
18339;DHT22;9295;44.484;11.240;2023-07-31T03:05:26;22.60;99.90
18339;DHT22;9295;44.484;11.240;2023-07-31T03:07:54;22.60;99.90
18339;DHT22;9295;44.484;11.240;2023-07-31T03:10:23;22.50;99.90
18339;DHT22;9295;44.484;11.240;2023-07-31T03:12:52;22.50;99.90
18339;DHT22;9295;44.484;11.240;2023-07-31T03:15:20;22.50;99.90
18339;DHT22;9295;44.484;11.240;2023-07-31T03:17:49;22.50;99.90
18339;DHT22;9295;44.484;11.240;2023-07-31T03:20:17;22.40;99.90
18339;DHT22;9295;44.484;11.240;2023-07-31T03:22:48;22.40;99.90
18339;DHT22;9295;44.484;11.240;2023-07-31T03:25:16;22.40;99.90
18339;DHT22;9295;44.484;11.240;2023-07-31T03:27:45;22.40;99.90
18339;DHT22;9295;44.484;11.240;2023-07-31T03:30:13;22.40;99.90
18339;DHT22;9295;44.484;11.240;2023-07-31T03:32:42;22.30;99.90
18339;DHT22;9295;44.484;11.240;2023-07-31T03:35:11;22.30;99.90
18339;DHT22;9295;44.484;11.240;2023-07-31T03:37:39;22.30;99.90
18339;DHT22;9295;44.484;11.240;2023-07-31T03:40:10;22.30;99.90
18339;DHT22;9295;44.484;11.240;2023-07-31T03:42:39;22.30;99.90
18339;DHT22;9295;44.484;11.240;2023-07-31T03:45:09;22.30;99.90
18339;DHT22;9295;44.484;11.240;2023-07-31T03:47:37;22.30;99.90
18339;DHT22;9295;44.484;11.240;2023-07-31T03:50:07;22.20;99.90
18339;DHT22;9295;44.484;11.240;2023-07-31T03:52:36;22.20;99.90
18339;DHT22;9295;44.484;11.240;2023-07-31T03:55:05;22.30;99.90
18339;DHT22;9295;44.484;11.240;2023-07-31T03:57:35;22.30;99.90
18339;DHT22;9295;44.484;11.240;2023-07-31T04:00:04;22.30;99.90
18339;DHT22;9295;44.484;11.240;2023-07-31T04:02:38;22.30;99.90
18339;DHT22;9295;44.484;11.240;2023-07-31T04:05:07;22.30;99.90
18339;DHT22;9295;44.484;11.240;2023-07-31T04:07:37;22.20;99.90
18339;DHT22;9295;44.484;11.240;2023-07-31T04:10:06;22.10;99.90
18339;DHT22;9295;44.484;11.240;2023-07-31T04:12:39;22.10;99.90
18339;DHT22;9295;44.484;11.240;2023-07-31T04:15:08;22.20;99.90
18339;DHT22;9295;44.484;11.240;2023-07-31T04:17:37;22.20;99.90
18339;DHT22;9295;44.484;11.240;2023-07-31T04:20:06;22.20;99.90
18339;DHT22;9295;44.484;11.240;2023-07-31T04:22:35;22.30;99.90
18339;DHT22;9295;44.484;11.240;2023-07-31T04:25:04;22.20;99.90
18339;DHT22;9295;44.484;11.240;2023-07-31T04:27:33;22.20;99.90
18339;DHT22;9295;44.484;11.240;2023-07-31T04:30:04;22.30;99.90
18339;DHT22;9295;44.484;11.240;2023-07-31T04:32:33;22.30;99.90
18339;DHT22;9295;44.484;11.240;2023-07-31T04:35:03;22.40;99.90
18339;DHT22;9295;44.484;11.240;2023-07-31T04:37:31;22.50;99.90
18339;DHT22;9295;44.484;11.240;2023-07-31T04:40:00;22.60;99.90
18339;DHT22;9295;44.484;11.240;2023-07-31T04:42:28;22.70;99.90
18339;DHT22;9295;44.484;11.240;2023-07-31T04:44:57;22.80;99.90
18339;DHT22;9295;44.484;11.240;2023-07-31T04:47:27;22.90;99.90
18339;DHT22;9295;44.484;11.240;2023-07-31T04:49:55;23.00;99.90
18339;DHT22;9295;44.484;11.240;2023-07-31T04:52:24;23.10;99.90
18339;DHT22;9295;44.484;11.240;2023-07-31T04:54:52;23.30;99.90
18339;DHT22;9295;44.484;11.240;2023-07-31T04:57:21;23.50;99.90
18339;DHT22;9295;44.484;11.240;2023-07-31T04:59:49;23.70;99.90
18339;DHT22;9295;44.484;11.240;2023-07-31T05:02:18;23.80;99.90
18339;DHT22;9295;44.484;11.240;2023-07-31T05:04:48;24.00;99.90
18339;DHT22;9295;44.484;11.240;2023-07-31T05:07:17;24.10;99.90
18339;DHT22;9295;44.484;11.240;2023-07-31T05:09:45;24.30;99.90
18339;DHT22;9295;44.484;11.240;2023-07-31T05:12:14;24.50;99.90
18339;DHT22;9295;44.484;11.240;2023-07-31T05:14:42;24.70;99.90
18339;DHT22;9295;44.484;11.240;2023-07-31T05:17:11;24.90;99.90
18339;DHT22;9295;44.484;11.240;2023-07-31T05:19:39;25.40;99.90
18339;DHT22;9295;44.484;11.240;2023-07-31T05:22:09;26.10;99.90
18339;DHT22;9295;44.484;11.240;2023-07-31T05:24:38;26.80;99.90
18339;DHT22;9295;44.484;11.240;2023-07-31T05:27:07;27.20;99.90
18339;DHT22;9295;44.484;11.240;2023-07-31T05:29:36;27.20;99.90
18339;DHT22;9295;44.484;11.240;2023-07-31T05:32:06;27.00;99.90
18339;DHT22;9295;44.484;11.240;2023-07-31T05:34:35;26.80;99.90
18339;DHT22;9295;44.484;11.240;2023-07-31T05:37:04;26.70;99.90
18339;DHT22;9295;44.484;11.240;2023-07-31T05:39:34;26.70;99.90
18339;DHT22;9295;44.484;11.240;2023-07-31T05:42:04;26.80;99.90
18339;DHT22;9295;44.484;11.240;2023-07-31T05:44:36;26.80;99.90
18339;DHT22;9295;44.484;11.240;2023-07-31T05:47:07;26.80;99.90
18339;DHT22;9295;44.484;11.240;2023-07-31T05:49:37;26.80;99.90
18339;DHT22;9295;44.484;11.240;2023-07-31T05:52:08;26.80;99.90
18339;DHT22;9295;44.484;11.240;2023-07-31T05:54:40;27.00;99.90
18339;DHT22;9295;44.484;11.240;2023-07-31T05:57:11;27.10;99.90
18339;DHT22;9295;44.484;11.240;2023-07-31T05:59:42;27.20;99.90
18339;DHT22;9295;44.484;11.240;2023-07-31T06:02:13;27.20;99.90
18339;DHT22;9295;44.484;11.240;2023-07-31T06:04:43;27.30;99.90
18339;DHT22;9295;44.484;11.240;2023-07-31T06:07:13;27.40;99.90
18339;DHT22;9295;44.484;11.240;2023-07-31T06:09:46;27.50;99.90
18339;DHT22;9295;44.484;11.240;2023-07-31T06:12:16;27.60;99.90
18339;DHT22;9295;44.484;11.240;2023-07-31T06:14:47;27.80;99.90
18339;DHT22;9295;44.484;11.240;2023-07-31T06:17:17;27.90;99.90
18339;DHT22;9295;44.484;11.240;2023-07-31T06:19:48;28.00;99.90
18339;DHT22;9295;44.484;11.240;2023-07-31T06:22:22;28.20;99.90
18339;DHT22;9295;44.484;11.240;2023-07-31T06:24:53;28.50;99.90
18339;DHT22;9295;44.484;11.240;2023-07-31T06:27:21;28.70;99.90
18339;DHT22;9295;44.484;11.240;2023-07-31T06:29:51;28.80;99.90
18339;DHT22;9295;44.484;11.240;2023-07-31T06:32:20;29.00;99.90
18339;DHT22;9295;44.484;11.240;2023-07-31T06:34:48;29.00;99.90
18339;DHT22;9295;44.484;11.240;2023-07-31T06:37:17;29.00;99.90
18339;DHT22;9295;44.484;11.240;2023-07-31T06:39:46;29.20;99.90
18339;DHT22;9295;44.484;11.240;2023-07-31T06:42:17;29.20;99.90
18339;DHT22;9295;44.484;11.240;2023-07-31T06:44:51;29.10;99.90
18339;DHT22;9295;44.484;11.240;2023-07-31T06:47:19;29.10;99.90
18339;DHT22;9295;44.484;11.240;2023-07-31T06:49:48;29.20;99.90
18339;DHT22;9295;44.484;11.240;2023-07-31T06:52:17;29.20;99.90
18339;DHT22;9295;44.484;11.240;2023-07-31T06:55:00;29.40;99.90
18339;DHT22;9295;44.484;11.240;2023-07-31T06:57:31;29.50;99.90
18339;DHT22;9295;44.484;11.240;2023-07-31T07:00:00;29.60;99.90
18339;DHT22;9295;44.484;11.240;2023-07-31T07:02:31;29.50;99.90
18339;DHT22;9295;44.484;11.240;2023-07-31T07:04:59;29.60;99.90
18339;DHT22;9295;44.484;11.240;2023-07-31T07:07:28;29.80;99.90
18339;DHT22;9295;44.484;11.240;2023-07-31T07:09:57;30.00;99.90
18339;DHT22;9295;44.484;11.240;2023-07-31T07:12:29;30.10;99.90
18339;DHT22;9295;44.484;11.240;2023-07-31T07:14:59;30.10;99.90
18339;DHT22;9295;44.484;11.240;2023-07-31T07:17:29;30.10;99.90
18339;DHT22;9295;44.484;11.240;2023-07-31T07:19:59;30.10;99.90
18339;DHT22;9295;44.484;11.240;2023-07-31T07:22:28;30.20;99.90
18339;DHT22;9295;44.484;11.240;2023-07-31T07:24:57;30.10;99.90
18339;DHT22;9295;44.484;11.240;2023-07-31T07:27:26;30.20;99.90
18339;DHT22;9295;44.484;11.240;2023-07-31T07:29:54;30.10;99.90
18339;DHT22;9295;44.484;11.240;2023-07-31T07:32:25;30.10;99.90
18339;DHT22;9295;44.484;11.240;2023-07-31T07:34:55;30.00;99.90
18339;DHT22;9295;44.484;11.240;2023-07-31T07:37:24;30.10;99.90
18339;DHT22;9295;44.484;11.240;2023-07-31T07:39:53;30.20;99.90
18339;DHT22;9295;44.484;11.240;2023-07-31T07:42:21;30.20;99.90
18339;DHT22;9295;44.484;11.240;2023-07-31T07:44:50;30.20;99.90
18339;DHT22;9295;44.484;11.240;2023-07-31T07:47:18;30.30;99.90
18339;DHT22;9295;44.484;11.240;2023-07-31T07:49:48;30.40;99.90
18339;DHT22;9295;44.484;11.240;2023-07-31T07:52:19;30.40;99.90
18339;DHT22;9295;44.484;11.240;2023-07-31T07:54:49;30.30;99.90
18339;DHT22;9295;44.484;11.240;2023-07-31T07:57:18;30.50;99.90
18339;DHT22;9295;44.484;11.240;2023-07-31T07:59:47;30.50;99.90
18339;DHT22;9295;44.484;11.240;2023-07-31T08:02:15;30.60;99.90
18339;DHT22;9295;44.484;11.240;2023-07-31T08:04:44;30.90;99.90
18339;DHT22;9295;44.484;11.240;2023-07-31T08:07:14;30.90;99.90
18339;DHT22;9295;44.484;11.240;2023-07-31T08:09:43;30.80;99.90
18339;DHT22;9295;44.484;11.240;2023-07-31T08:12:11;30.60;99.90
18339;DHT22;9295;44.484;11.240;2023-07-31T08:14:40;30.50;99.90
18339;DHT22;9295;44.484;11.240;2023-07-31T08:17:09;30.10;99.90
18339;DHT22;9295;44.484;11.240;2023-07-31T08:19:37;29.90;99.90
18339;DHT22;9295;44.484;11.240;2023-07-31T08:22:06;29.90;99.90
18339;DHT22;9295;44.484;11.240;2023-07-31T08:24:36;30.00;99.90
18339;DHT22;9295;44.484;11.240;2023-07-31T08:27:06;30.00;99.90
18339;DHT22;9295;44.484;11.240;2023-07-31T08:29:35;30.00;99.90
18339;DHT22;9295;44.484;11.240;2023-07-31T08:32:04;30.10;99.90
18339;DHT22;9295;44.484;11.240;2023-07-31T08:34:33;29.90;99.90
18339;DHT22;9295;44.484;11.240;2023-07-31T08:37:02;29.90;99.90
18339;DHT22;9295;44.484;11.240;2023-07-31T08:39:30;29.70;99.90
18339;DHT22;9295;44.484;11.240;2023-07-31T08:42:00;29.80;99.90
18339;DHT22;9295;44.484;11.240;2023-07-31T08:44:30;30.00;99.90
18339;DHT22;9295;44.484;11.240;2023-07-31T08:47:00;30.10;99.90
18339;DHT22;9295;44.484;11.240;2023-07-31T08:49:30;30.10;99.90
18339;DHT22;9295;44.484;11.240;2023-07-31T08:51:59;30.20;99.90
18339;DHT22;9295;44.484;11.240;2023-07-31T08:54:29;30.10;99.90
18339;DHT22;9295;44.484;11.240;2023-07-31T08:57:00;30.10;99.90
18339;DHT22;9295;44.484;11.240;2023-07-31T08:59:31;30.40;99.90
18339;DHT22;9295;44.484;11.240;2023-07-31T09:02:05;30.60;99.90
18339;DHT22;9295;44.484;11.240;2023-07-31T09:04:34;30.70;99.90
18339;DHT22;9295;44.484;11.240;2023-07-31T09:07:04;30.60;99.90
18339;DHT22;9295;44.484;11.240;2023-07-31T09:09:34;30.60;99.90
18339;DHT22;9295;44.484;11.240;2023-07-31T09:12:05;30.60;99.90
18339;DHT22;9295;44.484;11.240;2023-07-31T09:14:35;30.50;99.90
18339;DHT22;9295;44.484;11.240;2023-07-31T09:17:05;30.10;99.90
18339;DHT22;9295;44.484;11.240;2023-07-31T09:19:34;30.10;99.90
18339;DHT22;9295;44.484;11.240;2023-07-31T09:22:05;30.20;99.90
18339;DHT22;9295;44.484;11.240;2023-07-31T09:24:34;30.40;99.90
18339;DHT22;9295;44.484;11.240;2023-07-31T09:27:06;30.50;99.90
18339;DHT22;9295;44.484;11.240;2023-07-31T09:29:34;30.70;99.90
18339;DHT22;9295;44.484;11.240;2023-07-31T09:32:04;30.90;99.90
18339;DHT22;9295;44.484;11.240;2023-07-31T09:34:37;30.80;99.90
18339;DHT22;9295;44.484;11.240;2023-07-31T09:37:06;30.80;99.90
18339;DHT22;9295;44.484;11.240;2023-07-31T09:39:46;30.90;99.90
18339;DHT22;9295;44.484;11.240;2023-07-31T09:42:24;31.00;99.90
18339;DHT22;9295;44.484;11.240;2023-07-31T09:44:53;30.70;99.90
18339;DHT22;9295;44.484;11.240;2023-07-31T09:47:26;30.60;99.90
18339;DHT22;9295;44.484;11.240;2023-07-31T09:49:54;30.30;99.90
18339;DHT22;9295;44.484;11.240;2023-07-31T09:52:26;30.30;99.90
18339;DHT22;9295;44.484;11.240;2023-07-31T09:54:54;30.30;99.90
18339;DHT22;9295;44.484;11.240;2023-07-31T09:57:24;30.20;99.90
18339;DHT22;9295;44.484;11.240;2023-07-31T09:59:54;29.90;99.90
18339;DHT22;9295;44.484;11.240;2023-07-31T10:02:24;30.00;99.90
18339;DHT22;9295;44.484;11.240;2023-07-31T10:04:57;30.10;99.90
18339;DHT22;9295;44.484;11.240;2023-07-31T10:07:29;30.20;99.90
18339;DHT22;9295;44.484;11.240;2023-07-31T10:09:59;30.40;99.90
18339;DHT22;9295;44.484;11.240;2023-07-31T10:12:33;30.40;99.90
18339;DHT22;9295;44.484;11.240;2023-07-31T10:15:02;30.30;99.90
18339;DHT22;9295;44.484;11.240;2023-07-31T10:17:33;30.50;99.90
18339;DHT22;9295;44.484;11.240;2023-07-31T10:20:03;30.50;99.90
18339;DHT22;9295;44.484;11.240;2023-07-31T10:22:33;30.60;99.90
18339;DHT22;9295;44.484;11.240;2023-07-31T10:25:02;30.80;99.90
18339;DHT22;9295;44.484;11.240;2023-07-31T10:27:34;30.80;99.90
18339;DHT22;9295;44.484;11.240;2023-07-31T10:30:04;30.70;99.90
18339;DHT22;9295;44.484;11.240;2023-07-31T10:32:34;30.90;99.90
18339;DHT22;9295;44.484;11.240;2023-07-31T10:35:04;30.90;99.90
18339;DHT22;9295;44.484;11.240;2023-07-31T10:37:37;30.70;99.90
18339;DHT22;9295;44.484;11.240;2023-07-31T10:40:09;30.70;99.90
18339;DHT22;9295;44.484;11.240;2023-07-31T10:42:47;30.70;99.90
18339;DHT22;9295;44.484;11.240;2023-07-31T10:45:24;30.80;99.90
18339;DHT22;9295;44.484;11.240;2023-07-31T10:48:01;30.90;99.90
18339;DHT22;9295;44.484;11.240;2023-07-31T10:50:31;31.00;99.90
18339;DHT22;9295;44.484;11.240;2023-07-31T10:53:01;31.10;99.90
18339;DHT22;9295;44.484;11.240;2023-07-31T10:55:31;31.10;99.90
18339;DHT22;9295;44.484;11.240;2023-07-31T10:58:12;31.30;99.90
18339;DHT22;9295;44.484;11.240;2023-07-31T11:00:43;31.20;99.90
18339;DHT22;9295;44.484;11.240;2023-07-31T11:03:13;31.20;99.90
18339;DHT22;9295;44.484;11.240;2023-07-31T11:05:47;31.20;99.90
18339;DHT22;9295;44.484;11.240;2023-07-31T11:08:18;30.90;99.90
18339;DHT22;9295;44.484;11.240;2023-07-31T11:10:50;30.40;99.90
18339;DHT22;9295;44.484;11.240;2023-07-31T11:13:21;30.10;99.90
18339;DHT22;9295;44.484;11.240;2023-07-31T11:15:49;30.10;99.90
18339;DHT22;9295;44.484;11.240;2023-07-31T11:18:18;30.40;99.90
18339;DHT22;9295;44.484;11.240;2023-07-31T11:20:47;30.70;99.90
18339;DHT22;9295;44.484;11.240;2023-07-31T11:23:16;30.90;99.90
18339;DHT22;9295;44.484;11.240;2023-07-31T11:25:45;31.00;99.90
18339;DHT22;9295;44.484;11.240;2023-07-31T11:28:15;30.80;99.90
18339;DHT22;9295;44.484;11.240;2023-07-31T11:30:46;30.70;99.90
18339;DHT22;9295;44.484;11.240;2023-07-31T11:33:15;30.60;99.90
18339;DHT22;9295;44.484;11.240;2023-07-31T11:35:44;30.50;99.90
18339;DHT22;9295;44.484;11.240;2023-07-31T11:38:22;30.60;99.90
18339;DHT22;9295;44.484;11.240;2023-07-31T11:40:51;30.70;99.90
18339;DHT22;9295;44.484;11.240;2023-07-31T11:43:20;30.80;99.90
18339;DHT22;9295;44.484;11.240;2023-07-31T11:45:56;30.70;99.90
18339;DHT22;9295;44.484;11.240;2023-07-31T11:48:26;30.70;99.90
18339;DHT22;9295;44.484;11.240;2023-07-31T11:50:57;30.60;99.90
18339;DHT22;9295;44.484;11.240;2023-07-31T11:53:28;30.60;99.90
18339;DHT22;9295;44.484;11.240;2023-07-31T11:56:00;30.40;99.90
18339;DHT22;9295;44.484;11.240;2023-07-31T11:58:30;30.50;99.90
18339;DHT22;9295;44.484;11.240;2023-07-31T12:01:01;30.70;99.90
18339;DHT22;9295;44.484;11.240;2023-07-31T12:03:31;30.70;99.90
18339;DHT22;9295;44.484;11.240;2023-07-31T12:06:00;30.80;99.90
18339;DHT22;9295;44.484;11.240;2023-07-31T12:08:29;31.00;99.90
18339;DHT22;9295;44.484;11.240;2023-07-31T12:11:03;31.10;99.90
18339;DHT22;9295;44.484;11.240;2023-07-31T12:13:33;31.00;99.90
18339;DHT22;9295;44.484;11.240;2023-07-31T12:16:04;31.20;99.90
18339;DHT22;9295;44.484;11.240;2023-07-31T12:18:34;31.10;99.90
18339;DHT22;9295;44.484;11.240;2023-07-31T12:21:05;30.80;99.90
18339;DHT22;9295;44.484;11.240;2023-07-31T12:23:35;30.90;99.90
18339;DHT22;9295;44.484;11.240;2023-07-31T12:26:06;31.10;99.90
18339;DHT22;9295;44.484;11.240;2023-07-31T12:28:35;31.20;99.90
18339;DHT22;9295;44.484;11.240;2023-07-31T12:31:08;31.20;99.90
18339;DHT22;9295;44.484;11.240;2023-07-31T12:33:39;31.00;99.90
18339;DHT22;9295;44.484;11.240;2023-07-31T12:36:09;30.90;99.90
18339;DHT22;9295;44.484;11.240;2023-07-31T12:38:38;31.10;99.90
18339;DHT22;9295;44.484;11.240;2023-07-31T12:41:06;31.30;99.90
18339;DHT22;9295;44.484;11.240;2023-07-31T12:43:36;31.50;99.90
18339;DHT22;9295;44.484;11.240;2023-07-31T12:46:06;31.50;99.90
18339;DHT22;9295;44.484;11.240;2023-07-31T12:48:36;31.70;99.90
18339;DHT22;9295;44.484;11.240;2023-07-31T12:51:05;31.80;99.90
18339;DHT22;9295;44.484;11.240;2023-07-31T12:53:35;31.90;99.90
18339;DHT22;9295;44.484;11.240;2023-07-31T12:56:04;32.00;99.90
18339;DHT22;9295;44.484;11.240;2023-07-31T12:58:32;32.00;99.90
18339;DHT22;9295;44.484;11.240;2023-07-31T13:01:01;32.00;99.90
18339;DHT22;9295;44.484;11.240;2023-07-31T13:03:31;31.90;99.90
18339;DHT22;9295;44.484;11.240;2023-07-31T13:06:00;31.90;99.90
18339;DHT22;9295;44.484;11.240;2023-07-31T13:08:29;32.00;99.90
18339;DHT22;9295;44.484;11.240;2023-07-31T13:10:57;31.90;99.90
18339;DHT22;9295;44.484;11.240;2023-07-31T13:13:26;32.00;99.90
18339;DHT22;9295;44.484;11.240;2023-07-31T13:15:56;32.00;99.90
18339;DHT22;9295;44.484;11.240;2023-07-31T13:18:25;32.10;99.90
18339;DHT22;9295;44.484;11.240;2023-07-31T13:20:55;32.00;99.90
18339;DHT22;9295;44.484;11.240;2023-07-31T13:23:23;32.00;99.90
18339;DHT22;9295;44.484;11.240;2023-07-31T13:25:52;32.00;99.90
18339;DHT22;9295;44.484;11.240;2023-07-31T13:28:21;32.10;99.90
18339;DHT22;9295;44.484;11.240;2023-07-31T13:30:49;32.00;99.90
18339;DHT22;9295;44.484;11.240;2023-07-31T13:33:18;32.10;99.90
18339;DHT22;9295;44.484;11.240;2023-07-31T13:36:05;32.00;99.90
18339;DHT22;9295;44.484;11.240;2023-07-31T13:38:33;31.80;99.90
18339;DHT22;9295;44.484;11.240;2023-07-31T13:41:02;31.90;99.90
18339;DHT22;9295;44.484;11.240;2023-07-31T13:43:30;32.10;99.90
18339;DHT22;9295;44.484;11.240;2023-07-31T13:45:59;32.30;99.90
18339;DHT22;9295;44.484;11.240;2023-07-31T13:48:35;32.30;99.90
18339;DHT22;9295;44.484;11.240;2023-07-31T13:51:05;32.30;99.90
18339;DHT22;9295;44.484;11.240;2023-07-31T13:53:34;32.30;99.90
18339;DHT22;9295;44.484;11.240;2023-07-31T13:56:02;32.30;99.90
18339;DHT22;9295;44.484;11.240;2023-07-31T13:58:33;32.30;99.90
18339;DHT22;9295;44.484;11.240;2023-07-31T14:01:02;32.40;99.90
18339;DHT22;9295;44.484;11.240;2023-07-31T14:03:30;32.50;99.90
18339;DHT22;9295;44.484;11.240;2023-07-31T14:05:59;32.50;99.90
18339;DHT22;9295;44.484;11.240;2023-07-31T14:08:29;32.60;99.90
18339;DHT22;9295;44.484;11.240;2023-07-31T14:10:58;32.30;99.90
18339;DHT22;9295;44.484;11.240;2023-07-31T14:13:26;31.90;99.90
18339;DHT22;9295;44.484;11.240;2023-07-31T14:15:55;31.90;99.90
18339;DHT22;9295;44.484;11.240;2023-07-31T14:18:24;31.80;99.90
18339;DHT22;9295;44.484;11.240;2023-07-31T14:20:53;31.80;99.90
18339;DHT22;9295;44.484;11.240;2023-07-31T14:23:21;32.00;99.90
18339;DHT22;9295;44.484;11.240;2023-07-31T14:25:51;32.00;99.90
18339;DHT22;9295;44.484;11.240;2023-07-31T14:28:20;32.30;99.90
18339;DHT22;9295;44.484;11.240;2023-07-31T14:30:48;32.40;99.90
18339;DHT22;9295;44.484;11.240;2023-07-31T14:33:17;32.30;99.90
18339;DHT22;9295;44.484;11.240;2023-07-31T14:35:48;32.30;99.90
18339;DHT22;9295;44.484;11.240;2023-07-31T14:38:17;32.30;99.90
18339;DHT22;9295;44.484;11.240;2023-07-31T14:40:45;32.50;99.90
18339;DHT22;9295;44.484;11.240;2023-07-31T14:43:16;32.80;99.90
18339;DHT22;9295;44.484;11.240;2023-07-31T14:45:45;32.80;99.90
18339;DHT22;9295;44.484;11.240;2023-07-31T14:48:14;32.70;99.90
18339;DHT22;9295;44.484;11.240;2023-07-31T14:50:43;32.90;99.90
18339;DHT22;9295;44.484;11.240;2023-07-31T14:53:11;33.00;99.90
18339;DHT22;9295;44.484;11.240;2023-07-31T14:55:40;33.20;99.90
18339;DHT22;9295;44.484;11.240;2023-07-31T14:58:09;33.20;99.90
18339;DHT22;9295;44.484;11.240;2023-07-31T15:00:40;33.40;99.90
18339;DHT22;9295;44.484;11.240;2023-07-31T15:03:09;33.20;99.50
18339;DHT22;9295;44.484;11.240;2023-07-31T15:05:38;33.20;99.20
18339;DHT22;9295;44.484;11.240;2023-07-31T15:08:07;33.10;99.00
18339;DHT22;9295;44.484;11.240;2023-07-31T15:10:35;32.90;99.20
18339;DHT22;9295;44.484;11.240;2023-07-31T15:13:04;32.90;98.90
18339;DHT22;9295;44.484;11.240;2023-07-31T15:15:33;32.90;98.70
18339;DHT22;9295;44.484;11.240;2023-07-31T15:18:03;33.00;98.80
18339;DHT22;9295;44.484;11.240;2023-07-31T15:20:32;33.00;98.60
18339;DHT22;9295;44.484;11.240;2023-07-31T15:23:01;33.00;98.80
18339;DHT22;9295;44.484;11.240;2023-07-31T15:25:30;33.00;98.60
18339;DHT22;9295;44.484;11.240;2023-07-31T15:27:58;33.00;98.60
18339;DHT22;9295;44.484;11.240;2023-07-31T15:30:29;33.20;98.60
18339;DHT22;9295;44.484;11.240;2023-07-31T15:32:58;33.20;98.40
18339;DHT22;9295;44.484;11.240;2023-07-31T15:35:29;33.20;98.40
18339;DHT22;9295;44.484;11.240;2023-07-31T15:37:57;33.20;98.40
18339;DHT22;9295;44.484;11.240;2023-07-31T15:40:26;33.10;98.10
18339;DHT22;9295;44.484;11.240;2023-07-31T15:42:55;33.20;98.10
18339;DHT22;9295;44.484;11.240;2023-07-31T15:45:23;32.90;98.50